Time;durP1;ratioP1;P1;durP2;ratioP2;P2;SDS_P1;SDS_P2;PMS_P1;PMS_P2;Temp;Humidity;BMP_temperature;BMP_pressure;BME280_temperature;BME280_humidity;BME280_pressure;Samples;Min_cycle;Max_cycle;Signal;HPM_P1;HPM_P2
2023/03/14 00:00:12;;;;;;;;;36.75;26.00;;;;;5.00;79.77;96994.25;4905481;28;102034;-71
2023/03/14 00:02:40;;;;;;;;;44.50;35.50;;;;;5.02;79.34;96989.53;4904619;28;102373;-71
2023/03/14 00:05:08;;;;;;;;;31.50;28.00;;;;;5.06;79.64;96992.63;4894976;28;102168;-71
2023/03/14 00:07:37;;;;;;;;;37.00;31.75;;;;;5.03;80.04;96987.69;4903827;28;109205;-71
2023/03/14 00:10:08;;;;;;;;;39.50;34.00;;;;;4.82;80.99;96988.69;4909586;28;102737;-71
2023/03/14 00:12:35;;;;;;;;;45.00;38.50;;;;;4.82;81.02;96984.16;4907023;28;102004;-70
2023/03/14 00:15:04;;;;;;;;;36.75;22.75;;;;;4.89;80.43;96968.94;4901336;28;102307;-72
2023/03/14 00:17:31;;;;;;;;;34.75;25.75;;;;;4.83;80.64;96972.44;4905678;28;103973;-72
2023/03/14 00:20:04;;;;;;;;;39.75;32.50;;;;;4.82;81.82;96953.88;4907926;28;102023;-71
2023/03/14 00:22:31;;;;;;;;;40.25;31.75;;;;;4.91;80.78;96947.28;4908929;28;101916;-72
2023/03/14 00:24:59;;;;;;;;;30.50;26.25;;;;;4.91;79.53;96920.50;4915401;28;101922;-72
2023/03/14 00:27:26;;;;;;;;;19.25;13.50;;;;;4.89;81.57;96918.06;4912828;28;104186;-72
2023/03/14 00:29:54;;;;;;;;;23.75;18.75;;;;;4.91;80.59;96909.78;4903981;28;102302;-72
2023/03/14 00:32:22;;;;;;;;;20.75;14.50;;;;;4.89;81.32;96890.44;4904906;28;103060;-72
2023/03/14 00:34:49;;;;;;;;;17.00;12.00;;;;;4.92;80.52;96876.63;4896467;28;102437;-72
2023/03/14 00:37:16;;;;;;;;;20.00;16.75;;;;;5.33;77.76;96849.56;4920249;28;104002;-72
2023/03/14 00:39:43;;;;;;;;;18.50;17.00;;;;;5.39;77.84;96846.88;4905543;28;102921;-72
2023/03/14 00:42:10;;;;;;;;;13.75;13.00;;;;;5.43;77.40;96849.13;4881629;28;102180;-72
2023/03/14 00:44:37;;;;;;;;;10.75;7.25;;;;;5.45;77.41;96853.22;4907017;28;101965;-72
2023/03/14 00:47:06;;;;;;;;;7.75;6.25;;;;;5.48;77.31;96857.34;4906175;28;107330;-72
2023/03/14 00:49:33;;;;;;;;;3.75;3.25;;;;;5.52;77.17;96853.22;4922057;28;103125;-72
2023/03/14 00:52:00;;;;;;;;;6.75;5.50;;;;;5.60;76.98;96853.78;4911823;28;102312;-70
2023/03/14 00:54:28;;;;;;;;;4.00;2.25;;;;;5.69;76.42;96833.75;4905333;28;102482;-75
2023/03/14 00:56:55;;;;;;;;;2.00;2.00;;;;;5.71;77.48;96812.09;4906530;28;103636;-72
2023/03/14 00:59:22;;;;;;;;;11.25;8.75;;;;;5.90;76.13;96819.22;4909673;28;103279;-72
2023/03/14 01:01:49;;;;;;;;;13.75;11.25;;;;;6.27;74.41;96815.69;4902497;28;102399;-72
2023/03/14 01:04:16;;;;;;;;;12.25;7.75;;;;;6.19;75.19;96825.88;4903269;28;102447;-71
2023/03/14 01:06:45;;;;;;;;;9.25;8.00;;;;;6.13;75.34;96822.19;4893050;28;104160;-71
2023/03/14 01:09:22;;;;;;;;;7.75;6.50;;;;;6.12;74.60;96812.47;4909141;28;102224;-72
2023/03/14 01:12:07;;;;;;;;;8.25;7.00;;;;;5.81;76.40;96775.72;4900046;28;102265;-72
2023/03/14 01:14:51;;;;;;;;;5.25;4.00;;;;;5.99;76.05;96796.47;4902115;28;102592;-72
2023/03/14 01:17:42;;;;;;;;;4.00;3.00;;;;;6.04;74.90;96798.50;4906532;28;103112;-70
2023/03/14 01:20:35;;;;;;;;;2.25;1.75;;;;;6.08;74.83;96794.38;4907106;28;103285;-71
2023/03/14 01:23:09;;;;;;;;;2.00;1.00;;;;;6.18;74.86;96800.88;4910263;28;102275;-71
2023/03/14 01:25:41;;;;;;;;;0.00;0.00;;;;;6.22;74.43;96807.47;4920656;28;102033;-71
2023/03/14 01:28:08;;;;;;;;;1.25;0.00;;;;;6.23;73.61;96790.31;4903966;28;108645;-71
2023/03/14 01:30:35;;;;;;;;;1.25;1.00;;;;;6.27;73.59;96783.47;4894613;28;102446;-71
2023/03/14 01:33:02;;;;;;;;;2.75;1.75;;;;;6.32;73.94;96777.47;4919860;28;101990;-71
2023/03/14 01:35:29;;;;;;;;;7.00;6.00;;;;;6.36;73.64;96767.09;4904738;28;102423;-72
2023/03/14 01:37:56;;;;;;;;;5.50;5.00;;;;;6.36;74.09;96761.72;4906148;28;104003;-72
2023/03/14 01:40:23;;;;;;;;;11.00;8.00;;;;;6.39;73.70;96746.03;4902836;28;102403;-71
2023/03/14 01:42:58;;;;;;;;;3.00;3.00;;;;;6.42;73.56;96742.06;4893996;28;102362;-71
2023/03/14 01:46:02;;;;;;;;;7.00;6.00;;;;;6.41;73.76;96735.06;4909357;28;102033;-71
2023/03/14 01:48:38;;;;;;;;;4.00;2.50;;;;;6.56;74.09;96722.13;4904098;28;108432;-71
2023/03/14 01:51:11;;;;;;;;;2.50;2.00;;;;;6.66;73.41;96715.16;4902943;28;102418;-71
2023/03/14 01:53:40;;;;;;;;;0.75;0.75;;;;;6.73;73.02;96701.69;4912662;28;102088;-71
2023/03/14 01:56:09;;;;;;;;;3.00;1.00;;;;;6.86;72.38;96706.91;4914548;28;102030;-71
2023/03/14 01:58:39;;;;;;;;;1.00;1.00;;;;;6.91;72.19;96696.31;4914238;28;104201;-71
2023/03/14 02:01:08;;;;;;;;;0.50;0.50;;;;;7.03;72.55;96699.88;4908872;28;102538;-71
2023/03/14 02:03:45;;;;;;;;;1.00;0.75;;;;;7.14;71.99;96695.63;4900751;28;102109;-71
2023/03/14 02:06:17;;;;;;;;;1.00;1.00;;;;;7.23;72.23;96702.34;4907263;28;110174;-72
2023/03/14 02:08:58;;;;;;;;;0.00;0.00;;;;;7.29;70.98;96693.38;4904433;28;108485;-70
2023/03/14 02:11:41;;;;;;;;;0.00;0.00;;;;;7.34;71.10;96692.69;4913433;28;102559;-71
2023/03/14 02:14:37;;;;;;;;;0.00;0.00;;;;;7.44;71.07;96706.38;4895702;28;102358;-71
2023/03/14 02:17:18;;;;;;;;;0.00;0.00;;;;;7.49;69.87;96701.16;4910928;28;103542;-71
2023/03/14 02:20:07;;;;;;;;;0.00;0.00;;;;;7.57;69.79;96695.44;4911480;28;107918;-71
2023/03/14 02:22:57;;;;;;;;;1.00;0.00;;;;;7.64;69.57;96704.25;4905573;28;102694;-70
2023/03/14 02:25:55;;;;;;;;;1.75;0.00;;;;;7.70;69.25;96692.56;4901441;28;102093;-71
2023/03/14 02:28:23;;;;;;;;;1.00;1.00;;;;;7.76;69.02;96691.66;4882529;28;109149;-70
2023/03/14 02:30:50;;;;;;;;;3.00;3.00;;;;;7.71;69.76;96704.97;4927674;28;103940;-71
2023/03/14 02:33:20;;;;;;;;;7.00;6.50;;;;;7.49;70.88;96701.16;4910974;28;102171;-71
2023/03/14 02:35:59;;;;;;;;;13.00;10.00;;;;;7.21;71.36;96699.03;4893622;28;102020;-70
2023/03/14 02:38:55;;;;;;;;;29.50;26.75;;;;;6.63;72.57;96706.75;4908612;28;102282;-70
2023/03/14 02:41:23;;;;;;;;;28.50;26.50;;;;;6.47;72.90;96696.59;4900822;28;109065;-70
2023/03/14 02:43:50;;;;;;;;;25.75;20.50;;;;;6.43;73.25;96692.72;4905399;28;102445;-71
2023/03/14 02:46:19;;;;;;;;;20.00;17.50;;;;;6.42;73.26;96688.38;4902977;28;102344;-71
2023/03/14 02:48:56;;;;;;;;;20.00;15.50;;;;;6.36;73.09;96686.56;4907840;28;102851;-70
2023/03/14 02:51:25;;;;;;;;;13.00;11.00;;;;;6.35;73.92;96682.28;4909952;28;104461;-71
2023/03/14 02:53:52;;;;;;;;;10.00;10.00;;;;;6.31;73.72;96689.09;4903920;28;102087;-71
2023/03/14 02:56:20;;;;;;;;;13.75;9.00;;;;;6.17;74.43;96688.41;4896471;28;102063;-72
2023/03/14 02:58:47;;;;;;;;;20.75;17.00;;;;;5.86;76.98;96691.94;4912780;28;103130;-71
2023/03/14 03:01:14;;;;;;;;;21.00;19.75;;;;;5.59;77.46;96696.66;4905982;28;104376;-72
2023/03/14 03:03:41;;;;;;;;;13.75;12.50;;;;;5.59;77.88;96704.69;4911195;28;102257;-71
2023/03/14 03:06:08;;;;;;;;;23.00;19.00;;;;;5.54;77.61;96699.16;4906805;28;102196;-71
2023/03/14 03:08:35;;;;;;;;;17.50;13.25;;;;;5.61;76.83;96699.97;4911486;28;102123;-71
2023/03/14 03:11:03;;;;;;;;;12.75;12.75;;;;;5.63;76.74;96710.47;4902058;28;104013;-72
2023/03/14 03:13:30;;;;;;;;;9.00;8.25;;;;;5.61;76.81;96717.91;4906992;28;102177;-72
2023/03/14 03:15:57;;;;;;;;;11.00;8.00;;;;;5.51;77.07;96715.69;4903527;28;102110;-71
2023/03/14 03:18:24;;;;;;;;;11.00;9.00;;;;;5.39;78.28;96715.56;4913299;28;102547;-72
2023/03/14 03:20:52;;;;;;;;;13.50;9.00;;;;;5.27;78.34;96711.06;4905737;28;104392;-71
2023/03/14 03:23:19;;;;;;;;;11.00;9.75;;;;;5.07;79.61;96711.19;4902278;28;102306;-71
2023/03/14 03:25:51;;;;;;;;;28.50;19.25;;;;;4.71;81.28;96705.53;4893718;28;102210;-71
2023/03/14 03:28:19;;;;;;;;;23.75;22.00;;;;;4.72;81.51;96708.03;4901277;28;102038;-71
2023/03/14 03:30:46;;;;;;;;;35.75;30.75;;;;;4.55;81.31;96716.72;4907028;28;103994;-71
2023/03/14 03:33:14;;;;;;;;;36.50;28.25;;;;;4.36;82.75;96710.38;4911148;28;102207;-71
2023/03/14 03:35:45;;;;;;;;;17.75;17.75;;;;;4.35;83.96;96714.06;4909971;28;102350;-71
2023/03/14 03:38:15;;;;;;;;;19.75;17.75;;;;;4.38;82.90;96701.09;4904384;28;102234;-71
2023/03/14 03:40:42;;;;;;;;;28.25;23.25;;;;;4.43;82.84;96708.50;4896952;28;108214;-71
2023/03/14 03:43:09;;;;;;;;;47.00;39.00;;;;;4.17;85.00;96728.06;4906949;28;102558;-71
2023/03/14 03:45:36;;;;;;;;;32.00;28.25;;;;;4.27;84.56;96722.31;4902627;28;101952;-71
2023/03/14 03:48:04;;;;;;;;;30.75;26.00;;;;;4.36;84.16;96743.28;4906933;28;101856;-71
2023/03/14 03:50:31;;;;;;;;;27.75;26.00;;;;;4.40;84.35;96752.56;4896394;28;104291;-72
2023/03/14 03:52:58;;;;;;;;;36.50;35.50;;;;;4.59;83.69;96760.75;4908692;28;102320;-71
2023/03/14 03:55:26;;;;;;;;;33.00;26.00;;;;;4.97;81.10;96768.88;4895743;28;102260;-71
2023/03/14 03:57:54;;;;;;;;;29.75;24.75;;;;;5.28;79.35;96760.94;4910193;28;102506;-71
2023/03/14 04:00:23;;;;;;;;;31.25;21.75;;;;;5.64;77.07;96765.72;4894821;28;103983;-71
2023/03/14 04:02:50;;;;;;;;;22.25;17.50;;;;;5.74;77.46;96760.72;4891378;28;101994;-71
2023/03/14 04:05:17;;;;;;;;;29.00;24.25;;;;;5.68;77.59;96767.75;4903712;28;102313;-71
2023/03/14 04:07:44;;;;;;;;;45.50;34.75;;;;;5.66;76.28;96747.56;4910745;28;108360;-71
2023/03/14 04:10:11;;;;;;;;;54.00;38.25;;;;;5.83;76.69;96773.66;4912322;28;108904;-71
2023/03/14 04:12:38;;;;;;;;;41.50;37.75;;;;;5.90;76.58;96765.59;4901197;28;102374;-72
2023/03/14 04:15:06;;;;;;;;;50.75;38.25;;;;;5.99;76.03;96748.19;4911776;28;102298;-71
2023/03/14 04:17:33;;;;;;;;;33.75;33.00;;;;;6.13;75.67;96739.00;4912446;28;102271;-72
2023/03/14 04:20:01;;;;;;;;;29.75;27.50;;;;;6.22;75.25;96743.06;4910586;28;104042;-70
2023/03/14 04:22:28;;;;;;;;;34.75;27.00;;;;;6.32;75.45;96736.38;4912746;28;102277;-71
2023/03/14 04:24:55;;;;;;;;;23.75;21.00;;;;;6.24;74.64;96737.47;4904944;28;102480;-70
2023/03/14 04:27:22;;;;;;;;;11.75;9.00;;;;;6.16;75.27;96732.38;4881998;28;103147;-70
2023/03/14 04:29:49;;;;;;;;;13.25;11.75;;;;;6.05;75.40;96725.03;4914537;28;103494;-70
2023/03/14 04:32:16;;;;;;;;;11.75;9.00;;;;;5.90;77.14;96733.38;4922478;28;106346;-72
2023/03/14 04:34:43;;;;;;;;;21.25;17.50;;;;;5.80;77.65;96722.31;4908038;28;102437;-71
2023/03/14 04:37:11;;;;;;;;;16.75;14.00;;;;;5.62;77.94;96714.19;4909157;28;102493;-72
2023/03/14 04:39:38;;;;;;;;;12.75;9.00;;;;;5.63;79.01;96726.56;4862204;28;104046;-72
2023/03/14 04:42:09;;;;;;;;;13.00;13.00;;;;;5.52;78.79;96720.00;4919958;28;102268;-70
2023/03/14 04:44:43;;;;;;;;;15.75;14.00;;;;;5.50;79.01;96718.56;4913786;28;101948;-72
2023/03/14 04:47:17;;;;;;;;;9.00;8.25;;;;;5.52;78.57;96724.56;4870423;28;102828;-71
2023/03/14 04:49:44;;;;;;;;;10.00;8.00;;;;;5.54;78.31;96723.28;4877128;28;103039;-72
2023/03/14 04:52:14;;;;;;;;;5.25;4.25;;;;;5.58;78.10;96721.03;4866246;28;102427;-72
2023/03/14 04:54:41;;;;;;;;;23.75;17.00;;;;;5.45;80.46;96705.03;4880782;28;104689;-72
2023/03/14 04:57:08;;;;;;;;;35.00;25.50;;;;;5.28;80.57;96696.63;4913384;28;102283;-72
2023/03/14 04:59:35;;;;;;;;;29.00;26.25;;;;;5.25;81.19;96687.19;4899635;28;103995;-72
2023/03/14 05:02:02;;;;;;;;;21.25;18.50;;;;;5.28;80.88;96691.28;4910796;28;102419;-70
2023/03/14 05:04:32;;;;;;;;;17.25;15.50;;;;;5.35;80.55;96686.72;4900672;28;101989;-71
2023/03/14 05:07:00;;;;;;;;;13.75;11.75;;;;;5.40;80.28;96700.31;4908548;28;102345;-72
2023/03/14 05:09:27;;;;;;;;;18.00;14.50;;;;;5.30;80.34;96673.16;4902971;28;105257;-72
2023/03/14 05:11:54;;;;;;;;;8.25;6.00;;;;;5.26;81.63;96682.66;4900642;28;102342;-71
2023/03/14 05:14:21;;;;;;;;;41.00;33.50;;;;;4.79;82.58;96682.03;4909947;28;108461;-74
2023/03/14 05:16:48;;;;;;;;;50.75;42.50;;;;;4.73;83.40;96690.06;4887753;28;103245;-72
2023/03/14 05:19:15;;;;;;;;;76.00;55.00;;;;;4.69;83.51;96686.19;4906042;28;103092;-71
2023/03/14 05:21:42;;;;;;;;;62.67;45.67;;;;;4.82;83.35;96683.44;4904957;28;102229;-71
2023/03/14 05:24:09;;;;;;;;;44.50;37.50;;;;;4.90;83.51;96675.22;4901882;28;102266;-71
2023/03/14 05:26:36;;;;;;;;;40.00;33.75;;;;;4.99;83.23;96665.91;4899333;28;102067;-70
2023/03/14 05:29:03;;;;;;;;;30.25;26.50;;;;;5.07;82.86;96657.59;4910154;28;104040;-71
2023/03/14 05:31:30;;;;;;;;;22.25;17.25;;;;;5.13;82.52;96646.03;4907424;28;102197;-71
2023/03/14 05:33:57;;;;;;;;;14.00;13.00;;;;;5.22;82.29;96631.34;4900031;28;102429;-70
2023/03/14 05:36:24;;;;;;;;;11.00;9.00;;;;;5.28;81.95;96638.53;4908818;28;102726;-70
2023/03/14 05:38:51;;;;;;;;;13.00;9.00;;;;;5.39;81.74;96639.69;4902947;28;104122;-70
2023/03/14 05:41:18;;;;;;;;;8.25;7.00;;;;;5.49;81.28;96640.03;4908478;28;102486;-71
2023/03/14 05:43:45;;;;;;;;;7.25;5.50;;;;;5.63;80.67;96635.41;4904648;28;102079;-71
2023/03/14 05:46:12;;;;;;;;;6.75;4.00;;;;;5.80;79.63;96641.88;4897592;28;102068;-70
2023/03/14 05:48:39;;;;;;;;;6.50;4.00;;;;;5.96;79.49;96635.16;4910432;28;103984;-70
2023/03/14 05:51:06;;;;;;;;;2.00;2.00;;;;;6.13;78.67;96653.13;4904939;28;102133;-71
2023/03/14 05:53:33;;;;;;;;;2.75;1.75;;;;;6.27;77.74;96649.28;4903182;28;102496;-71
2023/03/14 05:56:00;;;;;;;;;3.00;2.00;;;;;6.44;76.77;96646.03;4910941;28;102088;-71
2023/03/14 05:58:27;;;;;;;;;2.00;2.00;;;;;6.58;76.32;96644.84;4909086;28;104046;-71
2023/03/14 06:00:54;;;;;;;;;2.00;1.75;;;;;6.73;75.37;96642.59;4904692;28;102121;-71
2023/03/14 06:03:21;;;;;;;;;3.00;2.00;;;;;6.86;75.14;96647.81;4904250;28;101886;-71
2023/03/14 06:05:51;;;;;;;;;2.25;1.75;;;;;7.01;74.38;96637.50;4910361;28;102484;-70
2023/03/14 06:08:18;;;;;;;;;2.00;2.00;;;;;7.13;74.58;96635.69;4898033;28;108526;-71
2023/03/14 06:10:45;;;;;;;;;1.75;1.00;;;;;7.26;74.32;96644.59;4911967;28;102509;-71
2023/03/14 06:13:12;;;;;;;;;2.25;2.00;;;;;7.35;74.04;96636.00;4909648;28;101938;-71
2023/03/14 06:15:39;;;;;;;;;1.00;1.00;;;;;7.48;73.17;96634.97;4900418;28;102012;-72
2023/03/14 06:18:06;;;;;;;;;2.00;2.00;;;;;7.60;73.45;96641.22;4885644;28;103943;-71
2023/03/14 06:20:38;;;;;;;;;2.25;2.25;;;;;7.73;72.85;96637.50;4914158;28;102185;-71
2023/03/14 06:23:08;;;;;;;;;3.25;3.25;;;;;7.86;71.77;96630.03;4902634;28;102541;-71
2023/03/14 06:25:36;;;;;;;;;4.75;3.00;;;;;8.02;70.99;96632.03;4902973;28;102732;-71
2023/03/14 06:28:04;;;;;;;;;3.00;3.00;;;;;8.13;69.87;96619.66;4909057;28;106610;-71
2023/03/14 06:30:31;;;;;;;;;6.50;5.00;;;;;8.45;69.15;96618.25;4906915;28;103664;-70
2023/03/14 06:32:58;;;;;;;;;5.50;4.00;;;;;8.62;69.30;96618.34;4898326;28;102983;-71
2023/03/14 06:35:25;;;;;;;;;6.25;6.25;;;;;8.75;68.60;96611.88;4906318;28;102171;-69
2023/03/14 06:37:52;;;;;;;;;5.00;4.00;;;;;8.86;67.68;96608.34;4905980;28;103978;-70
2023/03/14 06:40:19;;;;;;;;;7.50;3.75;;;;;8.97;66.56;96618.25;4897075;28;102505;-71
2023/03/14 06:42:47;;;;;;;;;2.50;1.50;;;;;9.06;66.89;96606.03;4907984;28;102285;-71
2023/03/14 06:45:14;;;;;;;;;2.25;1.00;;;;;9.13;65.85;96603.22;4918823;28;102074;-71
2023/03/14 06:47:41;;;;;;;;;4.00;4.00;;;;;9.16;65.88;96610.81;4908851;28;104081;-71
2023/03/14 06:50:09;;;;;;;;;4.50;4.00;;;;;9.22;66.14;96593.69;4911075;28;109569;-71
2023/03/14 06:52:37;;;;;;;;;3.00;3.00;;;;;9.29;65.44;96595.16;4910265;28;102423;-71
2023/03/14 06:55:04;;;;;;;;;3.75;3.25;;;;;9.39;64.92;96581.84;4899664;28;102827;-70
2023/03/14 06:57:31;;;;;;;;;4.00;3.50;;;;;9.47;64.65;96586.03;4903032;28;103985;-71
2023/03/14 06:59:58;;;;;;;;;5.00;4.75;;;;;9.58;64.40;96579.75;4907841;28;102419;-70
2023/03/14 07:02:25;;;;;;;;;5.75;5.00;;;;;9.70;63.74;96571.56;4904891;28;102397;-70
2023/03/14 07:05:10;;;;;;;;;4.50;3.25;;;;;9.88;63.42;96575.91;4912513;28;102078;-71
2023/03/14 07:07:37;;;;;;;;;5.00;4.00;;;;;10.02;64.89;96571.81;4906537;28;104023;-71
2023/03/14 07:10:04;;;;;;;;;5.00;4.00;;;;;10.05;62.98;96560.50;4912032;28;102125;-71
2023/03/14 07:12:31;;;;;;;;;3.75;3.00;;;;;10.33;63.58;96582.03;4902865;28;102213;-71
2023/03/14 07:14:58;;;;;;;;;4.25;3.25;;;;;10.46;63.17;96589.78;4899272;28;102103;-71
2023/03/14 07:17:42;;;;;;;;;3.00;2.00;;;;;10.59;62.20;96583.19;4903896;28;104022;-71
2023/03/14 07:20:10;;;;;;;;;6.25;4.50;;;;;10.63;61.72;96587.84;4896571;28;102479;-70
2023/03/14 07:22:37;;;;;;;;;4.00;4.00;;;;;10.74;61.90;96583.38;4911555;28;102123;-71
2023/03/14 07:25:05;;;;;;;;;5.00;4.00;;;;;10.85;60.73;96587.06;4907624;28;102104;-71
2023/03/14 07:27:32;;;;;;;;;3.50;3.50;;;;;10.91;60.38;96591.44;4907314;28;104027;-71
2023/03/14 07:29:59;;;;;;;;;4.50;3.75;;;;;11.05;60.66;96603.50;4911523;28;102335;-70
2023/03/14 07:32:26;;;;;;;;;4.50;3.00;;;;;11.11;61.01;96588.97;4894424;28;102117;-70
2023/03/14 07:34:56;;;;;;;;;5.50;5.50;;;;;11.22;60.47;96596.13;4907311;28;102459;-70
2023/03/14 07:37:23;;;;;;;;;5.50;4.00;;;;;11.39;59.20;96598.75;4908143;28;103705;-70
2023/03/14 07:39:50;;;;;;;;;4.25;4.25;;;;;11.52;58.30;96612.69;4909824;28;101803;-70
2023/03/14 07:42:17;;;;;;;;;4.50;4.00;;;;;11.71;58.71;96612.31;4908435;28;104306;-71
2023/03/14 07:44:44;;;;;;;;;4.00;3.00;;;;;11.81;59.65;96607.00;4903994;28;102010;-71
2023/03/14 07:47:11;;;;;;;;;6.00;4.75;;;;;12.00;57.85;96619.09;4910258;28;104011;-74
2023/03/14 07:49:38;;;;;;;;;4.00;3.00;;;;;12.21;57.65;96634.44;4907937;28;102264;-71
2023/03/14 07:52:05;;;;;;;;;4.00;3.25;;;;;12.43;57.84;96626.19;4910071;28;102275;-71
2023/03/14 07:54:32;;;;;;;;;5.25;3.75;;;;;12.55;55.84;96617.88;4907777;28;103531;-71
2023/03/14 07:57:00;;;;;;;;;4.00;4.00;;;;;12.71;56.10;96627.72;4905976;28;104146;-71
2023/03/14 07:59:27;;;;;;;;;4.00;3.00;;;;;12.80;55.43;96632.38;4905841;28;102954;-71
2023/03/14 08:01:54;;;;;;;;;6.50;6.00;;;;;12.80;55.12;96637.81;4906233;28;101923;-71
2023/03/14 08:04:21;;;;;;;;;4.00;2.00;;;;;12.88;53.95;96614.78;4904923;28;102712;-71
2023/03/14 08:06:48;;;;;;;;;6.00;5.25;;;;;12.94;53.98;96616.44;4904799;28;108538;-71
2023/03/14 08:09:15;;;;;;;;;8.25;6.25;;;;;12.95;54.89;96618.91;4895032;28;102341;-71
2023/03/14 08:11:42;;;;;;;;;3.50;2.75;;;;;13.01;53.92;96627.06;4897233;28;102315;-71
2023/03/14 08:14:10;;;;;;;;;5.75;4.25;;;;;13.04;54.99;96621.94;4909124;28;101968;-70
2023/03/14 08:16:37;;;;;;;;;5.50;3.25;;;;;13.13;52.95;96622.25;4904404;28;103758;-70
2023/03/14 08:19:04;;;;;;;;;5.50;5.50;;;;;13.11;54.05;96617.09;4909505;28;102468;-70
2023/03/14 08:21:31;;;;;;;;;6.00;5.00;;;;;13.24;53.28;96621.22;4906538;28;102543;-71
2023/03/14 08:23:58;;;;;;;;;5.00;5.00;;;;;13.30;53.73;96615.53;4909843;28;102028;-70
2023/03/14 08:26:25;;;;;;;;;6.75;6.00;;;;;13.27;52.56;96610.66;4906691;28;104085;-71
2023/03/14 08:28:55;;;;;;;;;5.75;5.75;;;;;13.34;52.31;96610.38;4907930;28;102057;-71
2023/03/14 08:31:22;;;;;;;;;5.75;5.00;;;;;13.33;51.99;96609.56;4906922;28;101943;-70
2023/03/14 08:33:51;;;;;;;;;8.00;5.00;;;;;13.49;52.94;96615.06;4909451;28;102076;-70
2023/03/14 08:36:19;;;;;;;;;3.00;3.00;;;;;13.54;52.25;96593.34;4908702;28;108710;-71
2023/03/14 08:38:49;;;;;;;;;6.00;5.00;;;;;13.51;52.24;96608.25;4897045;28;102323;-70
2023/03/14 08:41:16;;;;;;;;;5.25;3.25;;;;;13.59;51.35;96609.66;4899367;28;103239;-70
2023/03/14 08:43:43;;;;;;;;;4.75;4.00;;;;;13.44;51.18;96634.88;4904450;28;103162;-71
2023/03/14 08:46:10;;;;;;;;;6.00;5.75;;;;;13.37;52.16;96639.75;4898356;28;104109;-71
2023/03/14 08:48:37;;;;;;;;;4.00;4.00;;;;;13.39;52.66;96641.09;4897188;28;102055;-70
2023/03/14 08:51:10;;;;;;;;;4.75;4.75;;;;;13.37;52.03;96653.31;4897436;28;102092;-72
2023/03/14 08:53:37;;;;;;;;;5.25;4.75;;;;;13.41;51.74;96643.56;4904345;28;102049;-70
2023/03/14 08:56:06;;;;;;;;;3.50;3.25;;;;;13.51;52.34;96650.91;4900883;28;104016;-71
2023/03/14 08:58:33;;;;;;;;;4.75;4.00;;;;;13.60;51.33;96657.47;4912880;28;104905;-71
2023/03/14 09:01:00;;;;;;;;;4.25;4.25;;;;;13.60;52.43;96646.59;4907511;28;102098;-71
2023/03/14 09:03:28;;;;;;;;;4.00;4.00;;;;;13.68;52.29;96654.22;4911278;28;102002;-71
2023/03/14 09:05:55;;;;;;;;;6.00;4.25;;;;;13.59;52.03;96636.81;4908423;28;103988;-71
2023/03/14 09:08:22;;;;;;;;;6.25;5.00;;;;;13.55;52.65;96662.88;4906783;28;102145;-71
2023/03/14 09:10:49;;;;;;;;;5.50;5.25;;;;;13.51;51.86;96661.78;4908822;28;102202;-71
2023/03/14 09:13:15;;;;;;;;;6.50;6.00;;;;;13.44;51.42;96651.16;4913496;28;102047;-71
2023/03/14 09:15:42;;;;;;;;;4.00;4.00;;;;;13.49;52.33;96661.22;4908382;28;104030;-71
2023/03/14 09:18:09;;;;;;;;;6.00;6.00;;;;;13.47;53.48;96664.19;4903053;28;102427;-70
2023/03/14 09:20:36;;;;;;;;;4.00;4.00;;;;;13.60;52.76;96669.09;4907672;28;102325;-71
2023/03/14 09:23:03;;;;;;;;;5.00;4.00;;;;;13.53;52.38;96670.44;4911251;28;102199;-70
2023/03/14 09:25:30;;;;;;;;;4.75;4.00;;;;;13.59;52.79;96677.53;4911409;28;104010;-70
2023/03/14 09:27:57;;;;;;;;;3.00;3.00;;;;;13.66;52.58;96678.09;4912351;28;101955;-71
2023/03/14 09:30:24;;;;;;;;;3.50;3.25;;;;;13.59;53.16;96685.69;4902847;28;102237;-71
2023/03/14 09:32:51;;;;;;;;;4.50;3.75;;;;;13.56;52.82;96683.47;4908357;28;103316;-71
2023/03/14 09:35:18;;;;;;;;;7.00;6.25;;;;;13.30;52.77;96679.88;4896139;28;104220;-71
2023/03/14 09:37:46;;;;;;;;;5.25;4.00;;;;;13.24;53.50;96668.16;4911490;28;102183;-71
2023/03/14 09:40:15;;;;;;;;;7.00;5.75;;;;;13.33;52.88;96661.16;4910431;28;102049;-70
2023/03/14 09:42:43;;;;;;;;;4.75;4.50;;;;;13.35;52.77;96669.84;4909028;28;102379;-71
2023/03/14 09:45:18;;;;;;;;;4.00;3.00;;;;;13.59;53.98;96659.34;4928730;28;104024;-71
2023/03/14 09:47:47;;;;;;;;;5.00;4.00;;;;;13.72;52.23;96656.13;4901726;28;102350;-71
2023/03/14 09:50:29;;;;;;;;;4.75;4.50;;;;;13.93;52.47;96667.00;4907179;28;102032;-72
2023/03/14 09:53:02;;;;;;;;;4.50;4.00;;;;;14.13;51.59;96665.16;4912578;28;102198;-72
2023/03/14 09:55:29;;;;;;;;;5.00;4.00;;;;;14.30;52.65;96668.41;4912489;28;103979;-71
2023/03/14 09:58:03;;;;;;;;;4.75;3.00;;;;;14.40;50.91;96667.63;4909296;28;101970;-71
2023/03/14 10:00:31;;;;;;;;;5.00;5.00;;;;;14.41;50.99;96673.88;4905375;28;102023;-72
2023/03/14 10:03:13;;;;;;;;;3.75;3.25;;;;;14.63;50.40;96667.03;4909062;28;102780;-71
2023/03/14 10:05:41;;;;;;;;;4.00;4.00;;;;;14.69;51.18;96659.69;4905718;28;104100;-70
2023/03/14 10:08:13;;;;;;;;;4.00;4.00;;;;;14.81;50.09;96671.13;4910800;28;102084;-70
2023/03/14 10:10:40;;;;;;;;;4.00;3.33;;;;;14.87;50.99;96670.00;4895525;28;102377;-70
2023/03/14 10:13:27;;;;;;;;;4.00;3.75;;;;;14.70;49.86;96691.25;4908655;28;102039;-72
2023/03/14 10:16:04;;;;;;;;;5.75;5.25;;;;;14.63;50.75;96682.59;4904825;28;108874;-71
2023/03/14 10:18:34;;;;;;;;;5.00;4.00;;;;;14.45;50.47;96659.47;4900553;28;102146;-72
2023/03/14 10:21:15;;;;;;;;;4.33;4.33;;;;;14.73;50.81;96690.72;4921635;28;101960;-71
2023/03/14 10:23:42;;;;;;;;;4.00;4.00;;;;;14.71;49.98;96701.88;4884952;28;102174;-72
2023/03/14 10:26:15;;;;;;;;;5.00;5.00;;;;;14.55;50.83;96702.97;4903996;28;104107;-71
2023/03/14 10:28:52;;;;;;;;;4.00;3.00;;;;;14.53;51.05;96704.34;4910471;28;102267;-71
2023/03/14 10:31:25;;;;;;;;;5.00;4.33;;;;;14.61;51.87;96701.06;4908498;28;102371;-70
2023/03/14 10:34:04;;;;;;;;;2.33;2.33;;;;;14.58;51.99;96697.00;4911578;28;102094;-70
2023/03/14 10:36:34;;;;;;;;;5.00;2.67;;;;;14.56;52.21;96698.34;4911888;28;108391;-71
2023/03/14 10:39:22;;;;;;;;;3.75;3.25;;;;;14.40;51.58;96699.44;4905283;28;103339;-71
2023/03/14 10:41:56;;;;;;;;;3.67;3.00;;;;;14.28;52.15;96697.75;4878666;28;102384;-71
2023/03/14 10:44:25;;;;;;;;;3.67;2.33;;;;;14.15;52.55;96697.47;4906355;28;102204;-71
2023/03/14 10:46:59;;;;;;;;;4.00;4.00;;;;;14.01;53.48;96697.19;4906560;28;103983;-71
2023/03/14 10:49:34;;;;;;;;;3.00;3.00;;;;;13.99;53.28;96693.94;4905249;28;102068;-71
2023/03/14 10:52:15;;;;;;;;;5.25;4.50;;;;;13.78;53.35;96676.75;4910933;28;102009;-71
2023/03/14 10:54:47;;;;;;;;;8.00;6.00;;;;;13.63;55.09;96679.47;4909738;28;102243;-71
2023/03/14 10:57:14;;;;;;;;;7.00;5.75;;;;;13.61;54.94;96678.06;4914163;28;104133;-70
2023/03/14 10:59:44;;;;;;;;;5.00;4.25;;;;;13.66;55.06;96688.94;4903340;28;102174;-70
2023/03/14 11:02:22;;;;;;;;;5.00;4.50;;;;;13.65;55.02;96671.03;4901393;28;102029;-70
2023/03/14 11:05:15;;;;;;;;;5.00;4.00;;;;;13.61;54.35;96673.47;4904541;28;102278;-70
2023/03/14 11:07:44;;;;;;;;;6.00;3.50;;;;;13.57;54.34;96664.22;4903642;28;109259;-70
2023/03/14 11:10:18;;;;;;;;;4.00;4.00;;;;;13.61;54.60;96668.03;4908696;28;102570;-71
2023/03/14 11:13:06;;;;;;;;;4.50;4.50;;;;;13.59;54.65;96672.09;4908206;28;102989;-72
2023/03/14 11:16:09;;;;;;;;;5.00;4.25;;;;;13.54;54.54;96655.78;4915294;28;103245;-71
2023/03/14 11:19:13;;;;;;;;;7.00;5.50;;;;;13.37;55.73;96664.97;4905336;28;108630;-70
2023/03/14 11:21:56;;;;;;;;;6.00;4.25;;;;;13.37;56.27;96670.38;4902734;28;101939;-70
2023/03/14 11:24:35;;;;;;;;;6.75;6.75;;;;;13.18;56.98;96665.72;4911946;28;102221;-72
2023/03/14 11:27:08;;;;;;;;;7.50;6.00;;;;;13.17;56.04;96670.31;4891799;28;102162;-72
2023/03/14 11:29:55;;;;;;;;;4.25;4.25;;;;;13.24;56.19;96662.75;4905857;28;102999;-73
2023/03/14 11:32:41;;;;;;;;;11.75;8.75;;;;;12.95;57.20;96662.31;4903486;28;102100;-71
2023/03/14 11:35:22;;;;;;;;;8.00;8.00;;;;;12.82;58.11;96656.53;4910449;28;101989;-71
2023/03/14 11:37:55;;;;;;;;;7.25;6.00;;;;;12.69;58.83;96670.56;4910527;28;102107;-71